createdAt,value
2024-04-08T00:01:37.970Z,14.41
2024-04-08T00:04:05.117Z,14.31
2024-04-08T00:06:31.827Z,14.32
2024-04-08T00:08:59.267Z,14.32
2024-04-08T00:11:26.059Z,14.42
2024-04-08T00:13:52.913Z,14.42
2024-04-08T00:16:19.842Z,14.44
2024-04-08T00:18:46.624Z,14.41
2024-04-08T00:21:13.354Z,14.46
2024-04-08T00:23:40.334Z,14.45
2024-04-08T00:26:07.347Z,14.43
2024-04-08T00:28:38.888Z,14.36
2024-04-08T00:31:07.797Z,14.41
2024-04-08T00:33:35.654Z,14.33
2024-04-08T00:36:05.566Z,14.42
2024-04-08T00:38:32.562Z,14.38
2024-04-08T00:41:04.075Z,14.36
2024-04-08T00:43:31.333Z,14.44
2024-04-08T00:46:00.795Z,14.29
2024-04-08T00:48:27.984Z,13.99
2024-04-08T00:50:55.453Z,14.39
2024-04-08T00:53:23.696Z,14.15
2024-04-08T00:55:52.863Z,14.29
2024-04-08T00:58:20.081Z,14.27
2024-04-08T01:00:46.998Z,14.17
2024-04-08T01:03:14.154Z,14.37
2024-04-08T01:05:42.103Z,14.34
2024-04-08T01:08:09.282Z,14.39
2024-04-08T01:10:36.493Z,14.21
2024-04-08T01:13:03.192Z,14.28
2024-04-08T01:15:30.356Z,14.28
2024-04-08T01:17:57.487Z,14.08
2024-04-08T01:20:24.259Z,14.27
2024-04-08T01:22:55.259Z,14.21
2024-04-08T01:25:22.076Z,14.17
2024-04-08T01:27:48.977Z,14.10
2024-04-08T01:30:22.734Z,14.04
2024-04-08T01:32:50.142Z,14.06
2024-04-08T01:35:17.061Z,14.01
2024-04-08T01:37:43.941Z,13.97
2024-04-08T01:40:11.009Z,13.84
2024-04-08T01:42:37.754Z,13.92
2024-04-08T01:45:04.824Z,13.93
2024-04-08T01:47:31.668Z,13.92
2024-04-08T01:49:58.512Z,13.78
2024-04-08T01:52:25.477Z,13.89
2024-04-08T01:54:52.217Z,13.86
2024-04-08T01:57:18.935Z,13.72
2024-04-08T01:59:45.979Z,13.63
2024-04-08T02:02:12.765Z,13.76
2024-04-08T02:04:39.495Z,13.36
2024-04-08T02:07:06.244Z,13.71
2024-04-08T02:09:32.925Z,13.80
2024-04-08T02:11:59.981Z,13.76
2024-04-08T02:14:26.991Z,13.82
2024-04-08T02:16:53.686Z,13.78
2024-04-08T02:19:20.409Z,13.75
2024-04-08T02:21:47.364Z,13.71
2024-04-08T02:24:14.805Z,13.78
2024-04-08T02:26:41.590Z,13.81
2024-04-08T02:29:08.474Z,13.69
2024-04-08T02:31:35.170Z,13.59
2024-04-08T02:34:01.936Z,13.73
2024-04-08T02:36:29.570Z,13.63
2024-04-08T02:38:56.371Z,13.59
2024-04-08T02:41:23.156Z,13.53
2024-04-08T02:43:50.205Z,13.73
2024-04-08T02:46:16.861Z,13.69
2024-04-08T02:48:43.550Z,13.75
2024-04-08T02:51:11.009Z,13.70
2024-04-08T02:53:38.097Z,13.73
2024-04-08T02:56:08.351Z,13.73
2024-04-08T02:58:35.261Z,13.74
2024-04-08T03:01:13.542Z,13.79
2024-04-08T03:03:40.739Z,13.69
2024-04-08T03:06:17.110Z,13.78
2024-04-08T03:08:44.596Z,13.76
2024-04-08T03:11:11.599Z,13.69
2024-04-08T03:13:40.407Z,13.70
2024-04-08T03:16:07.638Z,13.40
2024-04-08T03:18:34.380Z,13.56
2024-04-08T03:21:03.357Z,13.54
2024-04-08T03:23:31.454Z,13.47
2024-04-08T03:26:02.474Z,12.97
2024-04-08T03:28:29.782Z,13.53
2024-04-08T03:30:57.888Z,13.55
2024-04-08T03:33:27.931Z,13.56
2024-04-08T03:35:54.897Z,13.47
2024-04-08T03:38:21.711Z,13.46
2024-04-08T03:40:59.166Z,13.52
2024-04-08T03:43:26.056Z,13.54
2024-04-08T03:45:52.778Z,13.49
2024-04-08T03:48:19.468Z,13.56
2024-04-08T03:50:46.508Z,13.41
2024-04-08T03:53:13.642Z,13.45
2024-04-08T03:55:41.046Z,13.44
2024-04-08T03:58:09.146Z,13.66
2024-04-08T04:00:35.960Z,13.51
2024-04-08T04:03:02.702Z,13.62
2024-04-08T04:05:29.584Z,13.62
2024-04-08T04:07:57.809Z,13.72
2024-04-08T04:10:24.597Z,13.63
2024-04-08T04:12:51.453Z,13.68
2024-04-08T04:15:18.349Z,13.72
2024-04-08T04:17:45.225Z,13.67
2024-04-08T04:20:15.804Z,13.44
2024-04-08T04:22:42.790Z,13.68
2024-04-08T04:25:09.558Z,13.48
2024-04-08T04:27:36.464Z,13.68
2024-04-08T04:30:03.978Z,13.71
2024-04-08T04:32:30.703Z,13.73
2024-04-08T04:34:57.539Z,13.75
2024-04-08T04:37:24.244Z,13.75
2024-04-08T04:39:50.965Z,13.60
2024-04-08T04:42:18.583Z,13.63
2024-04-08T04:44:45.427Z,13.81
2024-04-08T04:47:12.203Z,13.75
2024-04-08T04:49:38.908Z,13.63
2024-04-08T04:52:06.096Z,13.64
2024-04-08T04:54:33.737Z,13.38
2024-04-08T04:57:00.651Z,13.59
2024-04-08T04:59:27.430Z,13.59
2024-04-08T05:01:54.161Z,13.62
2024-04-08T05:04:21.052Z,13.68
2024-04-08T05:06:47.758Z,13.62
2024-04-08T05:09:14.582Z,13.74
2024-04-08T05:11:41.665Z,13.79
2024-04-08T05:14:08.480Z,13.66
2024-04-08T05:16:35.220Z,13.62
2024-04-08T05:19:02.303Z,13.70
2024-04-08T05:21:29.335Z,13.65
2024-04-08T05:23:56.467Z,13.59
2024-04-08T05:26:23.505Z,13.69
2024-04-08T05:28:51.016Z,13.57
2024-04-08T05:31:17.785Z,13.54
2024-04-08T05:33:44.827Z,13.75
2024-04-08T05:36:11.541Z,13.70
2024-04-08T05:38:38.299Z,13.75
2024-04-08T05:41:05.271Z,13.68
2024-04-08T05:43:34.833Z,13.74
2024-04-08T05:46:01.643Z,13.74
2024-04-08T05:48:28.463Z,13.64
2024-04-08T05:50:55.273Z,13.76
2024-04-08T05:53:22.087Z,13.77
2024-04-08T05:55:49.013Z,13.88
2024-04-08T05:58:15.799Z,13.83
2024-04-08T06:00:42.810Z,13.63
2024-04-08T06:03:10.167Z,13.94
2024-04-08T06:05:42.090Z,13.89
2024-04-08T06:08:08.914Z,14.16
2024-04-08T06:10:37.557Z,14.12
2024-04-08T06:13:04.906Z,14.07
2024-04-08T06:15:33.360Z,14.19
2024-04-08T06:18:00.555Z,14.21
2024-04-08T06:20:28.529Z,14.27
2024-04-08T06:22:56.033Z,14.36
2024-04-08T06:25:23.086Z,14.12
2024-04-08T06:27:49.928Z,14.38
2024-04-08T06:30:16.910Z,14.10
2024-04-08T06:32:48.470Z,14.42
2024-04-08T06:35:15.304Z,14.42
2024-04-08T06:37:42.087Z,14.39
2024-04-08T06:40:10.703Z,14.40
2024-04-08T06:42:37.467Z,14.42
2024-04-08T06:45:04.601Z,14.47
2024-04-08T06:47:31.588Z,14.48
2024-04-08T06:49:58.326Z,14.42
2024-04-08T06:52:25.628Z,14.50
2024-04-08T06:54:52.677Z,14.40
2024-04-08T06:57:19.710Z,14.30
2024-04-08T06:59:46.702Z,14.45
2024-04-08T07:02:13.870Z,14.40
2024-04-08T07:04:40.578Z,14.48
2024-04-08T07:07:07.465Z,14.45
2024-04-08T07:09:34.485Z,14.38
2024-04-08T07:12:02.732Z,14.37
2024-04-08T07:14:29.811Z,14.31
2024-04-08T07:16:56.851Z,14.52
2024-04-08T07:19:23.732Z,14.50
2024-04-08T07:21:53.342Z,14.56
2024-04-08T07:24:22.071Z,14.52
2024-04-08T07:26:49.229Z,14.33
2024-04-08T07:29:16.603Z,14.48
2024-04-08T07:31:43.561Z,14.49
2024-04-08T07:34:10.372Z,14.40
2024-04-08T07:36:37.198Z,14.48
2024-04-08T07:39:04.425Z,14.32
2024-04-08T07:41:31.429Z,14.14
2024-04-08T07:43:58.212Z,14.56
2024-04-08T07:46:25.365Z,14.46
2024-04-08T07:48:52.147Z,14.57
2024-04-08T07:51:18.914Z,14.78
2024-04-08T07:53:46.140Z,14.94
2024-04-08T07:56:13.090Z,15.14
2024-04-08T07:58:40.029Z,15.25
2024-04-08T08:01:09.052Z,15.32
2024-04-08T08:03:36.081Z,15.41
2024-04-08T08:06:06.221Z,15.54
2024-04-08T08:08:35.308Z,15.70
2024-04-08T08:11:05.991Z,15.80
2024-04-08T08:13:33.510Z,16.31
2024-04-08T08:16:01.684Z,16.60
2024-04-08T08:18:29.119Z,16.78
2024-04-08T08:20:56.845Z,17.05
2024-04-08T08:23:23.950Z,17.16
2024-04-08T08:25:51.067Z,17.30
2024-04-08T08:28:17.826Z,17.30
2024-04-08T08:30:44.827Z,17.39
2024-04-08T08:33:11.898Z,17.38
2024-04-08T08:35:39.328Z,17.45
2024-04-08T08:38:06.276Z,17.47
2024-04-08T08:40:38.963Z,17.63
2024-04-08T08:43:06.655Z,17.70
2024-04-08T08:45:34.835Z,17.69
2024-04-08T08:48:01.864Z,17.89
2024-04-08T08:50:29.957Z,17.97
2024-04-08T08:52:57.132Z,17.86
2024-04-08T08:55:26.204Z,18.13
2024-04-08T08:57:54.921Z,18.10
2024-04-08T09:00:21.754Z,18.16
2024-04-08T09:02:49.834Z,17.77
2024-04-08T09:05:16.670Z,17.61
2024-04-08T09:07:43.525Z,18.17
2024-04-08T09:10:10.439Z,18.16
2024-04-08T09:12:42.848Z,18.20
2024-04-08T09:15:13.699Z,18.30
2024-04-08T09:17:40.604Z,18.25
2024-04-08T09:20:08.260Z,18.22
2024-04-08T09:22:36.575Z,18.28
2024-04-08T09:25:03.480Z,18.31
2024-04-08T09:27:30.353Z,18.18
2024-04-08T09:29:57.244Z,18.22
2024-04-08T09:32:24.340Z,18.45
2024-04-08T09:34:51.081Z,18.53
2024-04-08T09:37:21.707Z,18.63
2024-04-08T09:39:49.791Z,18.72
2024-04-08T09:42:17.677Z,18.49
2024-04-08T09:44:46.166Z,18.29
2024-04-08T09:47:14.226Z,18.53
2024-04-08T09:49:48.131Z,18.45
2024-04-08T09:52:17.799Z,18.48
2024-04-08T09:54:44.708Z,18.49
2024-04-08T09:57:16.922Z,18.50
2024-04-08T09:59:46.835Z,18.57
2024-04-08T10:02:19.287Z,18.65
2024-04-08T10:04:54.269Z,18.59
2024-04-08T10:07:21.246Z,18.60
2024-04-08T10:09:48.149Z,18.54
2024-04-08T10:12:14.991Z,18.62
2024-04-08T10:14:42.314Z,18.66
2024-04-08T10:17:10.238Z,18.58
2024-04-08T10:19:37.241Z,18.84
2024-04-08T10:22:04.149Z,18.88
2024-04-08T10:24:40.493Z,18.74
2024-04-08T10:27:10.037Z,19.17
2024-04-08T10:29:37.444Z,19.28
2024-04-08T10:32:05.454Z,19.33
2024-04-08T10:34:35.329Z,19.45
2024-04-08T10:37:02.586Z,19.40
2024-04-08T10:39:29.965Z,19.42
2024-04-08T10:41:59.607Z,19.34
2024-04-08T10:44:33.068Z,19.47
2024-04-08T10:47:00.497Z,19.43
2024-04-08T10:49:27.771Z,19.48
2024-04-08T10:51:56.806Z,19.50
2024-04-08T10:54:23.729Z,19.63
2024-04-08T10:56:51.103Z,19.74
2024-04-08T10:59:17.869Z,19.84
2024-04-08T11:01:45.464Z,19.89
2024-04-08T11:04:13.621Z,19.86
2024-04-08T11:06:41.006Z,19.82
2024-04-08T11:09:08.151Z,19.73
2024-04-08T11:11:34.903Z,19.78
2024-04-08T11:14:05.740Z,19.88
2024-04-08T11:16:34.033Z,19.75
2024-04-08T11:19:02.356Z,20.05
2024-04-08T11:21:29.496Z,20.01
2024-04-08T11:23:56.455Z,19.91
2024-04-08T11:26:23.946Z,19.98
2024-04-08T11:28:50.759Z,19.84
2024-04-08T11:31:17.582Z,19.97
2024-04-08T11:33:44.526Z,20.12
2024-04-08T11:36:11.469Z,20.07
2024-04-08T11:38:42.765Z,20.25
2024-04-08T11:41:09.725Z,20.33
2024-04-08T11:43:36.735Z,20.38
2024-04-08T11:46:05.092Z,20.33
2024-04-08T11:48:32.882Z,20.40
2024-04-08T11:50:59.978Z,20.29
2024-04-08T11:53:27.030Z,20.19
2024-04-08T11:55:53.956Z,20.24
2024-04-08T11:58:20.691Z,19.95
2024-04-08T12:00:47.758Z,20.45
2024-04-08T12:03:14.844Z,20.41
2024-04-08T12:05:42.314Z,20.54
2024-04-08T12:08:09.540Z,20.45
2024-04-08T12:10:36.588Z,20.47
2024-04-08T12:13:29.477Z,20.36
2024-04-08T12:15:56.304Z,20.23
2024-04-08T12:18:23.120Z,20.03
2024-04-08T12:20:50.130Z,20.33
2024-04-08T12:23:17.036Z,20.20
2024-04-08T12:25:44.304Z,20.32
2024-04-08T12:28:11.166Z,20.31
2024-04-08T12:30:38.982Z,20.29
2024-04-08T12:33:05.866Z,20.08
2024-04-08T12:35:32.802Z,19.92
2024-04-08T12:38:00.805Z,19.98
2024-04-08T12:40:27.965Z,19.96
2024-04-08T12:42:54.725Z,20.04
2024-04-08T12:45:22.280Z,19.93
2024-04-08T12:47:49.372Z,19.91
2024-04-08T12:50:16.385Z,19.91
2024-04-08T12:52:43.337Z,19.73
2024-04-08T12:55:10.620Z,19.69
2024-04-08T12:57:37.761Z,19.70
2024-04-08T13:00:10.411Z,19.74
2024-04-08T13:02:40.555Z,19.54
2024-04-08T13:05:07.651Z,19.23
2024-04-08T13:07:34.857Z,19.49
2024-04-08T13:10:01.750Z,19.53
2024-04-08T13:12:29.387Z,19.41
2024-04-08T13:14:56.173Z,19.48
2024-04-08T13:17:23.919Z,19.38
2024-04-08T13:19:50.846Z,19.32
2024-04-08T13:22:17.575Z,19.22
2024-04-08T13:24:44.528Z,18.99
2024-04-08T13:27:11.507Z,19.12
2024-04-08T13:29:38.295Z,19.10
2024-04-08T13:32:05.635Z,19.17
2024-04-08T13:34:32.712Z,19.08
2024-04-08T13:37:01.229Z,19.17
2024-04-08T13:39:28.249Z,19.13
2024-04-08T13:41:55.156Z,19.05
2024-04-08T13:44:22.223Z,19.14
2024-04-08T13:46:49.265Z,19.12
2024-04-08T13:49:16.350Z,19.03
2024-04-08T13:51:43.075Z,19.07
2024-04-08T13:54:10.126Z,19.03
2024-04-08T13:56:37.590Z,18.92
2024-04-08T13:59:04.350Z,18.87
2024-04-08T14:01:31.583Z,19.02
2024-04-08T14:04:00.133Z,18.89
2024-04-08T14:06:27.939Z,19.09
2024-04-08T14:08:55.022Z,19.12
2024-04-08T14:11:22.344Z,18.98
2024-04-08T14:13:49.307Z,19.00
2024-04-08T14:16:16.372Z,18.74
2024-04-08T14:18:43.497Z,19.15
2024-04-08T14:21:11.051Z,19.14
2024-04-08T14:23:38.112Z,19.10
2024-04-08T14:26:05.102Z,19.17
2024-04-08T14:28:32.057Z,19.03
2024-04-08T14:30:59.122Z,19.20
2024-04-08T14:33:26.325Z,19.16
2024-04-08T14:35:53.716Z,19.22
2024-04-08T14:38:39.658Z,19.09
2024-04-08T14:41:09.575Z,18.66
2024-04-08T14:43:43.964Z,19.08
2024-04-08T14:46:18.790Z,18.97
2024-04-08T14:48:46.350Z,19.11
2024-04-08T14:51:14.447Z,19.07
2024-04-08T14:53:45.333Z,19.05
2024-04-08T14:56:13.354Z,19.02
2024-04-08T14:58:45.417Z,18.72
2024-04-08T15:01:14.963Z,19.09
2024-04-08T15:03:41.996Z,19.02
2024-04-08T15:06:09.074Z,18.88
2024-04-08T15:08:38.010Z,19.04
2024-04-08T15:11:06.266Z,18.88
2024-04-08T15:13:33.080Z,19.03
2024-04-08T15:16:00.068Z,19.00
2024-04-08T15:18:27.186Z,18.90
2024-04-08T15:20:54.657Z,18.81
2024-04-08T15:23:21.920Z,18.67
2024-04-08T15:25:48.705Z,18.65
2024-04-08T15:28:15.473Z,18.90
2024-04-08T15:30:43.271Z,18.83
2024-04-08T15:33:10.501Z,18.91
2024-04-08T15:35:37.422Z,18.84
2024-04-08T15:38:04.515Z,19.14
2024-04-08T15:40:31.341Z,19.17
2024-04-08T15:42:58.104Z,19.21
2024-04-08T15:45:25.320Z,19.37
2024-04-08T15:47:52.391Z,19.36
2024-04-08T15:50:19.334Z,19.33
2024-04-08T15:52:46.398Z,19.28
2024-04-08T15:55:13.122Z,19.29
2024-04-08T15:57:40.287Z,19.23
2024-04-08T16:00:08.195Z,19.40
2024-04-08T16:02:35.135Z,19.37
2024-04-08T16:05:02.939Z,19.38
2024-04-08T16:07:31.565Z,19.38
2024-04-08T16:09:58.531Z,19.40
2024-04-08T16:12:26.477Z,19.39
2024-04-08T16:14:53.737Z,19.31
2024-04-08T16:17:20.495Z,19.21
2024-04-08T16:19:51.415Z,19.17
2024-04-08T16:22:20.383Z,19.16
2024-04-08T16:24:48.498Z,19.23
2024-04-08T16:27:15.581Z,19.19
2024-04-08T16:29:42.418Z,19.21
2024-04-08T16:32:09.153Z,19.11
2024-04-08T16:34:35.992Z,19.05
2024-04-08T16:37:04.440Z,19.05
2024-04-08T16:39:31.290Z,18.92
2024-04-08T16:41:58.173Z,18.75
2024-04-08T16:44:24.979Z,18.87
2024-04-08T16:46:52.323Z,18.78
2024-04-08T16:49:19.838Z,18.75
2024-04-08T16:54:14.294Z,18.52
2024-04-08T16:56:41.060Z,18.36
2024-04-08T16:59:08.149Z,18.18
2024-04-08T17:01:35.082Z,18.52
2024-04-08T17:04:05.841Z,18.45
2024-04-08T17:06:40.369Z,18.43
2024-04-08T17:09:08.434Z,18.37
2024-04-08T17:11:35.274Z,18.04
2024-04-08T17:14:02.235Z,18.04
2024-04-08T17:16:29.176Z,18.21
2024-04-08T17:18:56.260Z,18.01
2024-04-08T17:21:24.942Z,18.19
2024-04-08T17:23:51.804Z,18.08
2024-04-08T17:26:18.701Z,18.05
2024-04-08T17:28:46.182Z,18.08
2024-04-08T17:31:12.942Z,17.93
2024-04-08T17:33:39.803Z,18.00
2024-04-08T17:36:08.254Z,17.96
2024-04-08T17:38:39.925Z,17.63
2024-04-08T17:41:09.327Z,17.89
2024-04-08T17:43:41.076Z,17.68
2024-04-08T17:46:08.431Z,17.74
2024-04-08T17:48:37.044Z,17.78
2024-04-08T17:51:06.889Z,17.77
2024-04-08T17:53:36.752Z,17.58
2024-04-08T17:56:10.046Z,17.34
2024-04-08T17:58:38.322Z,17.59
2024-04-08T18:01:18.057Z,17.45
2024-04-08T18:03:45.481Z,17.18
2024-04-08T18:06:14.203Z,17.28
2024-04-08T18:08:45.138Z,17.45
2024-04-08T18:11:13.907Z,17.32
2024-04-08T18:13:41.880Z,17.36
2024-04-08T18:16:20.617Z,17.30
2024-04-08T18:18:52.266Z,17.21
2024-04-08T18:21:21.201Z,17.09
2024-04-08T18:23:50.496Z,17.14
2024-04-08T18:26:20.972Z,16.95
2024-04-08T18:28:56.830Z,17.05
2024-04-08T18:31:23.737Z,16.96
2024-04-08T18:33:52.072Z,16.85
2024-04-08T18:36:19.504Z,16.97
2024-04-08T18:38:47.222Z,16.80
2024-04-08T18:41:19.342Z,16.90
2024-04-08T18:43:46.448Z,16.70
2024-04-08T18:46:24.041Z,16.79
2024-04-08T18:48:51.685Z,16.70
2024-04-08T18:51:18.886Z,16.59
2024-04-08T18:53:46.477Z,16.67
2024-04-08T18:56:13.672Z,16.56
2024-04-08T18:58:40.557Z,16.53
2024-04-08T19:01:13.636Z,16.46
2024-04-08T19:03:44.530Z,16.50
2024-04-08T19:06:12.752Z,16.49
2024-04-08T19:08:41.129Z,16.36
2024-04-08T19:11:08.214Z,16.35
2024-04-08T19:13:35.027Z,16.30
2024-04-08T19:16:04.419Z,16.25
2024-04-08T19:18:34.223Z,16.31
2024-04-08T19:21:07.076Z,16.25
2024-04-08T19:23:34.188Z,16.06
2024-04-08T19:26:02.402Z,16.17
2024-04-08T19:28:29.837Z,16.03
2024-04-08T19:30:57.292Z,16.18
2024-04-08T19:33:24.278Z,16.09
2024-04-08T19:35:56.311Z,16.05
2024-04-08T19:38:26.787Z,15.82
2024-04-08T19:41:00.023Z,16.03
2024-04-08T19:43:26.959Z,15.91
2024-04-08T19:46:01.891Z,15.91
2024-04-08T19:48:33.928Z,15.82
2024-04-08T19:51:19.993Z,15.87
2024-04-08T19:53:51.047Z,15.71
2024-04-08T19:56:20.853Z,15.78
2024-04-08T19:58:48.275Z,15.70
2024-04-08T20:01:15.248Z,15.75
2024-04-08T20:03:43.023Z,15.71
2024-04-08T20:06:09.960Z,15.90
2024-04-08T20:08:37.281Z,15.82
2024-04-08T20:11:12.222Z,15.92
2024-04-08T20:13:43.087Z,15.75
2024-04-08T20:16:16.296Z,15.77
2024-04-08T20:18:43.941Z,15.75
2024-04-08T20:21:11.378Z,15.83
2024-04-08T20:23:38.268Z,15.70
2024-04-08T20:26:06.524Z,15.65
2024-04-08T20:28:33.572Z,15.67
2024-04-08T20:31:02.842Z,15.62
2024-04-08T20:33:30.137Z,15.59
2024-04-08T20:36:01.602Z,15.03
2024-04-08T20:38:29.686Z,15.54
2024-04-08T20:41:00.443Z,15.49
2024-04-08T20:43:27.139Z,15.48
2024-04-08T20:45:57.165Z,15.29
2024-04-08T20:48:24.111Z,15.30
2024-04-08T20:50:58.655Z,15.34
2024-04-08T20:53:26.322Z,15.22
2024-04-08T20:56:07.343Z,15.44
2024-04-08T20:58:35.074Z,15.39
2024-04-08T21:01:10.276Z,15.15
2024-04-08T21:03:39.008Z,15.42
2024-04-08T21:06:10.716Z,15.14
2024-04-08T21:08:42.485Z,15.26
2024-04-08T21:11:12.037Z,15.17
2024-04-08T21:13:39.430Z,15.33
2024-04-08T21:16:07.229Z,15.37
2024-04-08T21:18:35.614Z,15.27
2024-04-08T21:21:05.323Z,15.32
2024-04-08T21:23:33.264Z,15.33
2024-04-08T21:26:07.180Z,15.36
2024-04-08T21:28:33.909Z,15.25
2024-04-08T21:31:00.721Z,15.39
2024-04-08T21:33:27.998Z,15.33
2024-04-08T21:35:56.196Z,15.36
2024-04-08T21:38:23.325Z,15.33
2024-04-08T21:40:58.015Z,15.36
2024-04-08T21:43:25.256Z,15.35
2024-04-08T21:45:57.862Z,15.33
2024-04-08T21:48:25.607Z,15.30
2024-04-08T21:50:53.467Z,15.09
2024-04-08T21:53:27.880Z,15.14
2024-04-08T21:55:56.951Z,15.11
2024-04-08T21:58:24.159Z,15.15
2024-04-08T22:00:51.374Z,15.09
2024-04-08T22:03:18.421Z,15.09
2024-04-08T22:05:45.626Z,14.87
2024-04-08T22:08:12.545Z,15.07
2024-04-08T22:10:39.558Z,14.98
2024-04-08T22:13:07.672Z,14.69
2024-04-08T22:15:35.675Z,15.00
2024-04-08T22:18:03.146Z,15.02
2024-04-08T22:20:30.018Z,15.03
2024-04-08T22:22:56.842Z,15.03
2024-04-08T22:25:23.731Z,14.96
2024-04-08T22:27:50.496Z,14.98
2024-04-08T22:30:17.908Z,14.89
2024-04-08T22:32:45.409Z,14.94
2024-04-08T22:35:12.190Z,14.78
2024-04-08T22:37:39.179Z,14.84
2024-04-08T22:40:11.280Z,14.88
2024-04-08T22:42:38.125Z,14.82
2024-04-08T22:45:05.402Z,14.75
2024-04-08T22:47:32.507Z,14.59
2024-04-08T22:49:59.327Z,14.78
2024-04-08T22:52:26.166Z,14.69
2024-04-08T22:54:53.150Z,14.59
2024-04-08T22:57:19.863Z,14.73
2024-04-08T22:59:46.686Z,14.76
2024-04-08T23:02:13.577Z,14.76
2024-04-08T23:04:41.016Z,14.60
2024-04-08T23:07:08.028Z,14.61
2024-04-08T23:09:35.433Z,14.78
2024-04-08T23:12:02.405Z,14.72
2024-04-08T23:14:29.531Z,14.46
2024-04-08T23:16:56.531Z,14.62
2024-04-08T23:19:23.509Z,14.58
2024-04-08T23:21:50.322Z,14.70
2024-04-08T23:24:17.280Z,14.52
2024-04-08T23:26:44.015Z,14.65
2024-04-08T23:29:10.708Z,14.74
2024-04-08T23:31:37.519Z,14.64
2024-04-08T23:34:07.743Z,14.68
2024-04-08T23:36:34.936Z,14.65
2024-04-08T23:39:01.949Z,14.71
2024-04-08T23:41:28.745Z,14.73
2024-04-08T23:43:56.079Z,14.61
2024-04-08T23:46:22.812Z,14.71
2024-04-08T23:48:49.713Z,14.71
2024-04-08T23:51:16.694Z,14.72
2024-04-08T23:53:44.569Z,14.69
2024-04-08T23:56:11.361Z,14.76
2024-04-08T23:58:38.304Z,14.67
